sensor_id;sensor_type;location;lat;lon;timestamp;pressure;altitude;pressure_sealevel;temperature;humidity
33506;BME280;19843;51.040;13.782;2022-07-21T00:00:49;156155.28;;;24.46;100.00
33506;BME280;19843;51.040;13.782;2022-07-21T00:03:16;156138.38;;;24.39;100.00
33506;BME280;19843;51.040;13.782;2022-07-21T00:05:44;156164.38;;;24.49;100.00
33506;BME280;19843;51.040;13.782;2022-07-21T00:08:11;156168.28;;;24.51;100.00
33506;BME280;19843;51.040;13.782;2022-07-21T00:10:39;156225.53;;;24.73;100.00
33506;BME280;19843;51.040;13.782;2022-07-21T00:13:07;156298.41;;;25.01;100.00
33506;BME280;19843;51.040;13.782;2022-07-21T00:15:36;156291.91;;;24.99;100.00
33506;BME280;19843;51.040;13.782;2022-07-21T00:18:04;156336.19;;;25.16;100.00
33506;BME280;19843;51.040;13.782;2022-07-21T00:20:31;156319.25;;;25.09;100.00
33506;BME280;19843;51.040;13.782;2022-07-21T00:22:59;156355.66;;;25.23;100.00
33506;BME280;19843;51.040;13.782;2022-07-21T00:25:26;156306.25;;;25.04;100.00
33506;BME280;19843;51.040;13.782;2022-07-21T00:27:59;156360.88;;;25.26;100.00
33506;BME280;19843;51.040;13.782;2022-07-21T00:30:27;156324.47;;;25.11;100.00
33506;BME280;19843;51.040;13.782;2022-07-21T00:32:55;156345.28;;;25.19;100.00
33506;BME280;19843;51.040;13.782;2022-07-21T00:35:23;156308.84;;;25.05;100.00
33506;BME280;19843;51.040;13.782;2022-07-21T00:37:51;156298.41;;;25.01;100.00
33506;BME280;19843;51.040;13.782;2022-07-21T00:40:18;156261.94;;;24.87;100.00
33506;BME280;19843;51.040;13.782;2022-07-21T00:42:46;156277.59;;;24.93;100.00
33506;BME280;19843;51.040;13.782;2022-07-21T00:45:14;156250.25;;;24.82;100.00
33506;BME280;19843;51.040;13.782;2022-07-21T00:47:42;156219.00;;;24.70;100.00
33506;BME280;19843;51.040;13.782;2022-07-21T00:50:13;156207.31;;;24.66;100.00
33506;BME280;19843;51.040;13.782;2022-07-21T00:52:41;156144.88;;;24.42;100.00
33506;BME280;19843;51.040;13.782;2022-07-21T00:55:11;156056.38;;;24.07;100.00
33506;BME280;19843;51.040;13.782;2022-07-21T00:57:40;156039.47;;;24.00;100.00
33506;BME280;19843;51.040;13.782;2022-07-21T01:00:09;155988.78;;;23.81;100.00
33506;BME280;19843;51.040;13.782;2022-07-21T01:02:37;155913.41;;;23.51;100.00
33506;BME280;19843;51.040;13.782;2022-07-21T01:05:07;155880.84;;;23.39;100.00
33506;BME280;19843;51.040;13.782;2022-07-21T01:07:41;155912.09;;;23.51;100.00
33506;BME280;19843;51.040;13.782;2022-07-21T01:10:09;155949.78;;;23.66;100.00
33506;BME280;19843;51.040;13.782;2022-07-21T01:12:37;155841.84;;;23.24;100.00
33506;BME280;19843;51.040;13.782;2022-07-21T01:15:06;155827.56;;;23.18;100.00
33506;BME280;19843;51.040;13.782;2022-07-21T01:17:36;155741.78;;;22.85;100.00
33506;BME280;19843;51.040;13.782;2022-07-21T01:20:06;155796.34;;;23.06;100.00
33506;BME280;19843;51.040;13.782;2022-07-21T01:22:38;155792.50;;;23.04;100.00
33506;BME280;19843;51.040;13.782;2022-07-21T01:25:06;155856.16;;;23.29;100.00
33506;BME280;19843;51.040;13.782;2022-07-21T01:27:33;155778.19;;;22.99;100.00
33506;BME280;19843;51.040;13.782;2022-07-21T01:30:02;155848.38;;;23.26;100.00
33506;BME280;19843;51.040;13.782;2022-07-21T01:32:34;155871.75;;;23.35;100.00
33506;BME280;19843;51.040;13.782;2022-07-21T01:35:03;155769.06;;;22.95;100.00
33506;BME280;19843;51.040;13.782;2022-07-21T01:37:34;155769.06;;;22.95;100.00
33506;BME280;19843;51.040;13.782;2022-07-21T01:40:05;155743.06;;;22.85;100.00
33506;BME280;19843;51.040;13.782;2022-07-21T01:42:50;155835.38;;;23.21;100.00
33506;BME280;19843;51.040;13.782;2022-07-21T01:45:19;155910.78;;;23.50;100.00
33506;BME280;19843;51.040;13.782;2022-07-21T01:47:47;155936.78;;;23.61;100.00
33506;BME280;19843;51.040;13.782;2022-07-21T01:50:14;155826.25;;;23.17;100.00
33506;BME280;19843;51.040;13.782;2022-07-21T01:52:42;155845.75;;;23.25;100.00
33506;BME280;19843;51.040;13.782;2022-07-21T01:55:11;155824.94;;;23.17;100.00
33506;BME280;19843;51.040;13.782;2022-07-21T01:57:38;155929.00;;;23.58;100.00
33506;BME280;19843;51.040;13.782;2022-07-21T02:00:07;155826.25;;;23.17;100.00
33506;BME280;19843;51.040;13.782;2022-07-21T02:02:35;155757.38;;;22.91;100.00
33506;BME280;19843;51.040;13.782;2022-07-21T02:05:02;155856.16;;;23.29;100.00
33506;BME280;19843;51.040;13.782;2022-07-21T02:07:30;155871.75;;;23.35;100.00
33506;BME280;19843;51.040;13.782;2022-07-21T02:09:57;155793.78;;;23.05;100.00
33506;BME280;19843;51.040;13.782;2022-07-21T02:12:26;155619.63;;;22.37;100.00
33506;BME280;19843;51.040;13.782;2022-07-21T02:14:54;155659.88;;;22.53;100.00
33506;BME280;19843;51.040;13.782;2022-07-21T02:17:21;155711.94;;;22.73;100.00
33506;BME280;19843;51.040;13.782;2022-07-21T02:19:49;155689.75;;;22.64;100.00
33506;BME280;19843;51.040;13.782;2022-07-21T02:22:16;155682.00;;;22.61;100.00
33506;BME280;19843;51.040;13.782;2022-07-21T02:24:44;155639.13;;;22.45;100.00
33506;BME280;19843;51.040;13.782;2022-07-21T02:27:11;155620.91;;;22.38;100.00
33506;BME280;19843;51.040;13.782;2022-07-21T02:29:40;155637.81;;;22.44;100.00
33506;BME280;19843;51.040;13.782;2022-07-21T02:32:07;155585.88;;;22.24;100.00
33506;BME280;19843;51.040;13.782;2022-07-21T02:34:35;155583.25;;;22.23;100.00
33506;BME280;19843;51.040;13.782;2022-07-21T02:37:02;155557.28;;;22.13;100.00
33506;BME280;19843;51.040;13.782;2022-07-21T02:39:29;155531.31;;;22.03;100.00
33506;BME280;19843;51.040;13.782;2022-07-21T02:41:57;155543.00;;;22.07;100.00
33506;BME280;19843;51.040;13.782;2022-07-21T02:44:25;155488.41;;;21.86;100.00
33506;BME280;19843;51.040;13.782;2022-07-21T02:46:54;155559.91;;;22.14;100.00
33506;BME280;19843;51.040;13.782;2022-07-21T02:49:21;155541.69;;;22.07;100.00
33506;BME280;19843;51.040;13.782;2022-07-21T02:51:48;155535.25;;;22.04;100.00
33506;BME280;19843;51.040;13.782;2022-07-21T02:54:16;155583.25;;;22.23;100.00
33506;BME280;19843;51.040;13.782;2022-07-21T02:56:44;155604.06;;;22.31;100.00
33506;BME280;19843;51.040;13.782;2022-07-21T02:59:11;155579.34;;;22.21;100.00
33506;BME280;19843;51.040;13.782;2022-07-21T03:01:39;155584.56;;;22.23;100.00
33506;BME280;19843;51.040;13.782;2022-07-21T03:04:08;155597.56;;;22.28;100.00
33506;BME280;19843;51.040;13.782;2022-07-21T03:06:35;155552.09;;;22.11;100.00
33506;BME280;19843;51.040;13.782;2022-07-21T03:09:03;155562.50;;;22.15;100.00
33506;BME280;19843;51.040;13.782;2022-07-21T03:11:31;155596.25;;;22.28;100.00
33506;BME280;19843;51.040;13.782;2022-07-21T03:13:59;155604.06;;;22.31;100.00
33506;BME280;19843;51.040;13.782;2022-07-21T03:16:26;155627.44;;;22.40;100.00
33506;BME280;19843;51.040;13.782;2022-07-21T03:18:54;155611.84;;;22.34;100.00
33506;BME280;19843;51.040;13.782;2022-07-21T03:21:23;155637.81;;;22.44;100.00
33506;BME280;19843;51.040;13.782;2022-07-21T03:23:51;155670.31;;;22.57;100.00
33506;BME280;19843;51.040;13.782;2022-07-21T03:26:18;155723.63;;;22.78;100.00
33506;BME280;19843;51.040;13.782;2022-07-21T03:28:46;155775.59;;;22.98;100.00
33506;BME280;19843;51.040;13.782;2022-07-21T03:31:13;155775.59;;;22.98;100.00
33506;BME280;19843;51.040;13.782;2022-07-21T03:33:40;155830.16;;;23.19;100.00
33506;BME280;19843;51.040;13.782;2022-07-21T03:36:08;155817.16;;;23.14;100.00
33506;BME280;19843;51.040;13.782;2022-07-21T03:38:37;155867.84;;;23.34;100.00
33506;BME280;19843;51.040;13.782;2022-07-21T03:41:04;155887.34;;;23.41;100.00
33506;BME280;19843;51.040;13.782;2022-07-21T03:43:38;155876.91;;;23.37;100.00
33506;BME280;19843;51.040;13.782;2022-07-21T03:46:05;155867.84;;;23.34;100.00
33506;BME280;19843;51.040;13.782;2022-07-21T03:48:33;155873.06;;;23.36;100.00
33506;BME280;19843;51.040;13.782;2022-07-21T03:51:00;155897.78;;;23.45;100.00
33506;BME280;19843;51.040;13.782;2022-07-21T03:53:28;155886.06;;;23.41;100.00
33506;BME280;19843;51.040;13.782;2022-07-21T03:55:56;155891.22;;;23.43;100.00
33506;BME280;19843;51.040;13.782;2022-07-21T03:58:24;155897.78;;;23.45;100.00
33506;BME280;19843;51.040;13.782;2022-07-21T04:00:51;155837.94;;;23.22;100.00
33506;BME280;19843;51.040;13.782;2022-07-21T04:03:19;155802.88;;;23.08;100.00
33506;BME280;19843;51.040;13.782;2022-07-21T04:05:48;155770.38;;;22.96;100.00
33506;BME280;19843;51.040;13.782;2022-07-21T04:08:15;155748.28;;;22.87;100.00
33506;BME280;19843;51.040;13.782;2022-07-21T04:10:43;155740.47;;;22.84;100.00
33506;BME280;19843;51.040;13.782;2022-07-21T04:13:13;155674.16;;;22.58;100.00
33506;BME280;19843;51.040;13.782;2022-07-21T04:15:41;155705.38;;;22.70;100.00
33506;BME280;19843;51.040;13.782;2022-07-21T04:18:09;155748.28;;;22.87;100.00
33506;BME280;19843;51.040;13.782;2022-07-21T04:20:36;155718.41;;;22.76;100.00
33506;BME280;19843;51.040;13.782;2022-07-21T04:23:04;155697.59;;;22.67;100.00
33506;BME280;19843;51.040;13.782;2022-07-21T04:25:31;155718.41;;;22.76;100.00
33506;BME280;19843;51.040;13.782;2022-07-21T04:27:59;155728.78;;;22.80;100.00
33506;BME280;19843;51.040;13.782;2022-07-21T04:30:28;155711.94;;;22.73;100.00
33506;BME280;19843;51.040;13.782;2022-07-21T04:32:56;155698.91;;;22.68;100.00
33506;BME280;19843;51.040;13.782;2022-07-21T04:35:23;155728.78;;;22.80;100.00
33506;BME280;19843;51.040;13.782;2022-07-21T04:37:51;155700.16;;;22.68;100.00
33506;BME280;19843;51.040;13.782;2022-07-21T04:40:19;155827.56;;;23.18;100.00
33506;BME280;19843;51.040;13.782;2022-07-21T04:42:46;155863.94;;;23.32;100.00
33506;BME280;19843;51.040;13.782;2022-07-21T04:45:15;155900.41;;;23.46;100.00
33506;BME280;19843;51.040;13.782;2022-07-21T04:47:47;156053.78;;;24.06;100.00
33506;BME280;19843;51.040;13.782;2022-07-21T04:50:16;156211.22;;;24.67;100.00
33506;BME280;19843;51.040;13.782;2022-07-21T04:52:44;156282.84;;;24.95;100.00
33506;BME280;19843;51.040;13.782;2022-07-21T04:55:13;156308.84;;;25.05;100.00
33506;BME280;19843;51.040;13.782;2022-07-21T04:57:42;156303.63;;;25.03;100.00
33506;BME280;19843;51.040;13.782;2022-07-21T05:00:12;156308.84;;;25.05;100.00
33506;BME280;19843;51.040;13.782;2022-07-21T05:02:41;156342.66;;;25.18;100.00
33506;BME280;19843;51.040;13.782;2022-07-21T05:05:10;156405.16;;;25.43;100.00
33506;BME280;19843;51.040;13.782;2022-07-21T05:07:38;156397.31;;;25.40;100.00
33506;BME280;19843;51.040;13.782;2022-07-21T05:10:06;156478.06;;;25.71;100.00
33506;BME280;19843;51.040;13.782;2022-07-21T05:12:34;156557.47;;;26.02;100.00
33506;BME280;19843;51.040;13.782;2022-07-21T05:15:03;156623.94;;;26.28;100.00
33506;BME280;19843;51.040;13.782;2022-07-21T05:17:31;156698.16;;;26.57;100.00
33506;BME280;19843;51.040;13.782;2022-07-21T05:20:00;156784.19;;;26.90;100.00
33506;BME280;19843;51.040;13.782;2022-07-21T05:22:30;156870.13;;;27.23;100.00
33506;BME280;19843;51.040;13.782;2022-07-21T05:24:58;156918.38;;;27.42;100.00
33506;BME280;19843;51.040;13.782;2022-07-21T05:27:25;156932.72;;;27.48;100.00
33506;BME280;19843;51.040;13.782;2022-07-21T05:29:53;156982.25;;;27.67;100.00
33506;BME280;19843;51.040;13.782;2022-07-21T05:32:21;157090.44;;;28.09;100.00
33506;BME280;19843;51.040;13.782;2022-07-21T05:34:49;157142.63;;;28.29;100.00
33506;BME280;19843;51.040;13.782;2022-07-21T05:37:17;157283.53;;;28.84;100.00
33506;BME280;19843;51.040;13.782;2022-07-21T05:39:46;157333.06;;;29.03;100.00
33506;BME280;19843;51.040;13.782;2022-07-21T05:42:13;157325.25;;;29.00;100.00
33506;BME280;19843;51.040;13.782;2022-07-21T05:44:41;157241.75;;;28.68;100.00
33506;BME280;19843;51.040;13.782;2022-07-21T05:47:08;157132.22;;;28.25;100.00
33506;BME280;19843;51.040;13.782;2022-07-21T05:49:36;157069.59;;;28.01;100.00
33506;BME280;19843;51.040;13.782;2022-07-21T05:52:04;157077.41;;;28.04;100.00
33506;BME280;19843;51.040;13.782;2022-07-21T05:54:31;157038.31;;;27.89;100.00
33506;BME280;19843;51.040;13.782;2022-07-21T05:57:00;157102.22;;;28.13;100.00
33506;BME280;19843;51.040;13.782;2022-07-21T05:59:28;157129.59;;;28.24;100.00
33506;BME280;19843;51.040;13.782;2022-07-21T06:01:56;157210.44;;;28.55;100.00
33506;BME280;19843;51.040;13.782;2022-07-21T06:04:23;157245.66;;;28.69;100.00
33506;BME280;19843;51.040;13.782;2022-07-21T06:06:51;157291.38;;;28.87;100.00
33506;BME280;19843;51.040;13.782;2022-07-21T06:09:19;157244.34;;;28.69;100.00
33506;BME280;19843;51.040;13.782;2022-07-21T06:11:46;157202.63;;;28.52;100.00
33506;BME280;19843;51.040;13.782;2022-07-21T06:14:15;157188.28;;;28.47;100.00
33506;BME280;19843;51.040;13.782;2022-07-21T06:16:42;157307.00;;;28.93;97.97
33506;BME280;19843;51.040;13.782;2022-07-21T06:19:10;157359.19;;;29.13;96.46
33506;BME280;19843;51.040;13.782;2022-07-21T06:21:37;157380.03;;;29.21;90.34
33506;BME280;19843;51.040;13.782;2022-07-21T06:24:12;157359.19;;;29.13;93.39
33506;BME280;19843;51.040;13.782;2022-07-21T06:26:40;157407.50;;;29.32;95.02
33506;BME280;19843;51.040;13.782;2022-07-21T06:29:07;157277.03;;;28.81;89.86
33506;BME280;19843;51.040;13.782;2022-07-21T06:31:36;157296.56;;;28.89;90.58
33506;BME280;19843;51.040;13.782;2022-07-21T06:34:03;157316.16;;;28.96;89.60
33506;BME280;19843;51.040;13.782;2022-07-21T06:36:31;157382.66;;;29.22;89.80
33506;BME280;19843;51.040;13.782;2022-07-21T06:38:58;157406.19;;;29.31;87.11
33506;BME280;19843;51.040;13.782;2022-07-21T06:41:26;157359.19;;;29.13;90.05
33506;BME280;19843;51.040;13.782;2022-07-21T06:43:54;157399.63;;;29.29;85.64
33506;BME280;19843;51.040;13.782;2022-07-21T06:46:22;157397.03;;;29.28;79.65
33506;BME280;19843;51.040;13.782;2022-07-21T06:48:51;157408.81;;;29.32;77.22
33506;BME280;19843;51.040;13.782;2022-07-21T06:51:19;157547.13;;;29.86;75.01
33506;BME280;19843;51.040;13.782;2022-07-21T06:53:46;157638.50;;;30.21;75.99
33506;BME280;19843;51.040;13.782;2022-07-21T06:56:13;157574.56;;;29.97;73.52
33506;BME280;19843;51.040;13.782;2022-07-21T06:58:41;157724.72;;;30.55;75.60
33506;BME280;19843;51.040;13.782;2022-07-21T07:01:16;158039.56;;;31.77;63.17
33506;BME280;19843;51.040;13.782;2022-07-21T07:03:45;158422.66;;;33.25;56.04
33506;BME280;19843;51.040;13.782;2022-07-21T07:06:15;158408.25;;;33.20;51.24
33506;BME280;19843;51.040;13.782;2022-07-21T07:08:43;158672.50;;;34.22;47.72
33506;BME280;19843;51.040;13.782;2022-07-21T07:11:11;158571.78;;;33.83;47.84
33506;BME280;19843;51.040;13.782;2022-07-21T07:13:38;158498.47;;;33.55;47.99
33506;BME280;19843;51.040;13.782;2022-07-21T07:16:22;158439.59;;;33.32;49.62
33506;BME280;19843;51.040;13.782;2022-07-21T07:18:50;158644.97;;;34.11;48.58
33506;BME280;19843;51.040;13.782;2022-07-21T07:21:19;158853.13;;;34.92;45.87
33506;BME280;19843;51.040;13.782;2022-07-21T07:23:46;158644.97;;;34.11;45.96
33506;BME280;19843;51.040;13.782;2022-07-21T07:26:14;158922.53;;;35.19;45.21
33506;BME280;19843;51.040;13.782;2022-07-21T07:28:41;158765.44;;;34.58;45.80
33506;BME280;19843;51.040;13.782;2022-07-21T07:31:09;158843.97;;;34.88;44.70
33506;BME280;19843;51.040;13.782;2022-07-21T07:33:36;158875.41;;;35.00;44.89
33506;BME280;19843;51.040;13.782;2022-07-21T07:36:04;158507.59;;;33.58;46.34
33506;BME280;19843;51.040;13.782;2022-07-21T07:38:34;158707.84;;;34.36;46.03
33506;BME280;19843;51.040;13.782;2022-07-21T07:41:02;158603.13;;;33.95;45.88
33506;BME280;19843;51.040;13.782;2022-07-21T07:43:30;158249.97;;;32.58;48.99
33506;BME280;19843;51.040;13.782;2022-07-21T07:45:57;158395.13;;;33.15;48.43
33506;BME280;19843;51.040;13.782;2022-07-21T07:48:26;158518.09;;;33.62;48.40
33506;BME280;19843;51.040;13.782;2022-07-21T07:50:54;158451.41;;;33.36;49.69
33506;BME280;19843;51.040;13.782;2022-07-21T07:53:22;158231.69;;;32.51;50.65
33506;BME280;19843;51.040;13.782;2022-07-21T07:55:50;158247.34;;;32.57;52.45
33506;BME280;19843;51.040;13.782;2022-07-21T07:58:18;158112.69;;;32.05;53.71
33506;BME280;19843;51.040;13.782;2022-07-21T08:00:45;158183.31;;;32.33;55.38
33506;BME280;19843;51.040;13.782;2022-07-21T08:03:22;158171.56;;;32.28;55.83
33506;BME280;19843;51.040;13.782;2022-07-21T08:05:51;158123.19;;;32.09;54.97
33506;BME280;19843;51.040;13.782;2022-07-21T08:08:18;158158.50;;;32.23;56.07
33506;BME280;19843;51.040;13.782;2022-07-21T08:10:46;157999.06;;;31.61;55.29
33506;BME280;19843;51.040;13.782;2022-07-21T08:13:17;157951.97;;;31.43;55.63
33506;BME280;19843;51.040;13.782;2022-07-21T08:15:48;157966.34;;;31.49;57.03
33506;BME280;19843;51.040;13.782;2022-07-21T08:18:16;157975.47;;;31.52;55.68
33506;BME280;19843;51.040;13.782;2022-07-21T08:20:45;157984.66;;;31.56;58.22
33506;BME280;19843;51.040;13.782;2022-07-21T08:23:14;157946.72;;;31.41;56.54
33506;BME280;19843;51.040;13.782;2022-07-21T08:25:42;158051.31;;;31.81;56.91
33506;BME280;19843;51.040;13.782;2022-07-21T08:28:10;158029.06;;;31.73;56.01
33506;BME280;19843;51.040;13.782;2022-07-21T08:30:39;158090.50;;;31.97;55.79
33506;BME280;19843;51.040;13.782;2022-07-21T08:33:06;158029.06;;;31.73;56.01
33506;BME280;19843;51.040;13.782;2022-07-21T08:35:34;157923.22;;;31.32;56.52
33506;BME280;19843;51.040;13.782;2022-07-21T08:38:04;157936.28;;;31.37;56.05
33506;BME280;19843;51.040;13.782;2022-07-21T08:40:33;157989.88;;;31.58;57.08
33506;BME280;19843;51.040;13.782;2022-07-21T08:43:03;158038.25;;;31.76;56.71
33506;BME280;19843;51.040;13.782;2022-07-21T08:45:31;157992.50;;;31.59;56.88
33506;BME280;19843;51.040;13.782;2022-07-21T08:47:59;157996.44;;;31.60;55.25
33506;BME280;19843;51.040;13.782;2022-07-21T08:50:29;158023.88;;;31.71;55.06
33506;BME280;19843;51.040;13.782;2022-07-21T08:52:57;158179.38;;;32.31;56.71
33506;BME280;19843;51.040;13.782;2022-07-21T08:55:28;158200.31;;;32.39;53.79
33506;BME280;19843;51.040;13.782;2022-07-21T08:57:56;158361.13;;;33.01;52.69
33506;BME280;19843;51.040;13.782;2022-07-21T09:00:24;158236.88;;;32.53;52.58
33506;BME280;19843;51.040;13.782;2022-07-21T09:03:08;158354.63;;;32.99;51.79
33506;BME280;19843;51.040;13.782;2022-07-21T09:05:36;158422.66;;;33.25;52.21
33506;BME280;19843;51.040;13.782;2022-07-21T09:08:05;158499.78;;;33.55;49.82
33506;BME280;19843;51.040;13.782;2022-07-21T09:10:34;158642.41;;;34.10;48.30
33506;BME280;19843;51.040;13.782;2022-07-21T09:13:04;158474.94;;;33.45;48.42
33506;BME280;19843;51.040;13.782;2022-07-21T09:15:33;158522.00;;;33.64;50.65
33506;BME280;19843;51.040;13.782;2022-07-21T09:18:13;158455.31;;;33.38;49.66
33506;BME280;19843;51.040;13.782;2022-07-21T09:20:47;158482.75;;;33.48;48.81
33506;BME280;19843;51.040;13.782;2022-07-21T09:23:16;158502.41;;;33.56;49.59
33506;BME280;19843;51.040;13.782;2022-07-21T09:25:46;158456.63;;;33.38;50.72
33506;BME280;19843;51.040;13.782;2022-07-21T09:28:16;158443.53;;;33.33;50.06
33506;BME280;19843;51.040;13.782;2022-07-21T09:30:49;158570.47;;;33.82;49.72
33506;BME280;19843;51.040;13.782;2022-07-21T09:33:27;158433.09;;;33.29;49.88
33506;BME280;19843;51.040;13.782;2022-07-21T09:36:01;158461.88;;;33.40;50.69
33506;BME280;19843;51.040;13.782;2022-07-21T09:38:32;158527.25;;;33.66;51.13
33506;BME280;19843;51.040;13.782;2022-07-21T09:41:08;158454.00;;;33.37;50.61
33506;BME280;19843;51.040;13.782;2022-07-21T09:43:38;158442.22;;;33.33;52.62
33506;BME280;19843;51.040;13.782;2022-07-21T09:46:14;158342.81;;;32.94;53.74
33506;BME280;19843;51.040;13.782;2022-07-21T09:48:46;158478.88;;;33.47;53.65
33506;BME280;19843;51.040;13.782;2022-07-21T09:51:35;158247.34;;;32.57;56.16
33506;BME280;19843;51.040;13.782;2022-07-21T09:54:05;158085.25;;;31.95;59.89
33506;BME280;19843;51.040;13.782;2022-07-21T09:56:35;158193.75;;;32.37;62.27
33506;BME280;19843;51.040;13.782;2022-07-21T09:59:04;158270.94;;;32.66;59.24
33506;BME280;19843;51.040;13.782;2022-07-21T10:01:32;158263.03;;;32.63;59.58
33506;BME280;19843;51.040;13.782;2022-07-21T10:04:04;158338.91;;;32.93;60.23
33506;BME280;19843;51.040;13.782;2022-07-21T10:06:36;158348.06;;;32.96;57.44
33506;BME280;19843;51.040;13.782;2022-07-21T10:09:06;158148.06;;;32.19;59.37
33506;BME280;19843;51.040;13.782;2022-07-21T10:11:38;158103.56;;;32.02;61.04
33506;BME280;19843;51.040;13.782;2022-07-21T10:14:08;158170.25;;;32.27;59.46
33506;BME280;19843;51.040;13.782;2022-07-21T10:16:36;158124.44;;;32.10;59.85
33506;BME280;19843;51.040;13.782;2022-07-21T10:19:10;158162.44;;;32.24;59.00
33506;BME280;19843;51.040;13.782;2022-07-21T10:21:43;158451.41;;;33.36;56.55
33506;BME280;19843;51.040;13.782;2022-07-21T10:24:13;158396.44;;;33.15;55.17
33506;BME280;19843;51.040;13.782;2022-07-21T10:26:59;158550.81;;;33.75;51.89
33506;BME280;19843;51.040;13.782;2022-07-21T10:29:49;158430.47;;;33.28;54.60
33506;BME280;19843;51.040;13.782;2022-07-21T10:32:27;158480.13;;;33.47;56.10
33506;BME280;19843;51.040;13.782;2022-07-21T10:34:59;158260.44;;;32.62;56.36
33506;BME280;19843;51.040;13.782;2022-07-21T10:37:46;158172.88;;;32.28;59.16
33506;BME280;19843;51.040;13.782;2022-07-21T10:40:36;158179.38;;;32.31;60.35
33506;BME280;19843;51.040;13.782;2022-07-21T10:43:38;158078.75;;;31.92;62.90
33506;BME280;19843;51.040;13.782;2022-07-21T10:46:36;158013.44;;;31.67;61.43
33506;BME280;19843;51.040;13.782;2022-07-21T10:49:06;158069.56;;;31.88;62.09
33506;BME280;19843;51.040;13.782;2022-07-21T10:51:37;157957.22;;;31.45;62.33
33506;BME280;19843;51.040;13.782;2022-07-21T10:54:20;157932.41;;;31.35;62.18
33506;BME280;19843;51.040;13.782;2022-07-21T10:56:48;157954.59;;;31.44;61.77
33506;BME280;19843;51.040;13.782;2022-07-21T10:59:15;157847.50;;;31.02;63.22
33506;BME280;19843;51.040;13.782;2022-07-21T11:01:43;157834.41;;;30.97;66.91
33506;BME280;19843;51.040;13.782;2022-07-21T11:04:12;157797.81;;;30.83;69.74
33506;BME280;19843;51.040;13.782;2022-07-21T11:06:44;157842.22;;;31.00;69.56
33506;BME280;19843;51.040;13.782;2022-07-21T11:09:13;157787.38;;;30.79;67.48
33506;BME280;19843;51.040;13.782;2022-07-21T11:11:57;157800.44;;;30.84;70.39
33506;BME280;19843;51.040;13.782;2022-07-21T11:14:36;157882.75;;;31.16;69.70
33506;BME280;19843;51.040;13.782;2022-07-21T11:17:04;157957.22;;;31.45;67.60
33506;BME280;19843;51.040;13.782;2022-07-21T11:19:35;157992.50;;;31.59;66.81
33506;BME280;19843;51.040;13.782;2022-07-21T11:22:09;157949.34;;;31.42;69.51
33506;BME280;19843;51.040;13.782;2022-07-21T11:24:37;157991.19;;;31.58;72.12
33506;BME280;19843;51.040;13.782;2022-07-21T11:27:07;158230.38;;;32.51;69.67
33506;BME280;19843;51.040;13.782;2022-07-21T11:29:40;158119.25;;;32.08;69.55
33506;BME280;19843;51.040;13.782;2022-07-21T11:32:08;157999.06;;;31.61;73.49
33506;BME280;19843;51.040;13.782;2022-07-21T11:34:42;158038.25;;;31.76;73.41
33506;BME280;19843;51.040;13.782;2022-07-21T11:37:14;157941.53;;;31.39;75.95
33506;BME280;19843;51.040;13.782;2022-07-21T11:40:02;157915.41;;;31.29;78.25
33506;BME280;19843;51.040;13.782;2022-07-21T11:42:30;157979.41;;;31.54;81.63
33506;BME280;19843;51.040;13.782;2022-07-21T11:44:58;157852.69;;;31.04;81.42
33506;BME280;19843;51.040;13.782;2022-07-21T11:47:26;157714.28;;;30.51;87.06
33506;BME280;19843;51.040;13.782;2022-07-21T11:49:55;157737.78;;;30.60;89.06
33506;BME280;19843;51.040;13.782;2022-07-21T11:52:26;157652.88;;;30.27;92.66
33506;BME280;19843;51.040;13.782;2022-07-21T11:54:56;157673.72;;;30.35;94.34
33506;BME280;19843;51.040;13.782;2022-07-21T11:57:25;157655.50;;;30.28;96.24
33506;BME280;19843;51.040;13.782;2022-07-21T11:59:55;157664.59;;;30.32;97.12
33506;BME280;19843;51.040;13.782;2022-07-21T12:02:25;157659.41;;;30.30;99.28
33506;BME280;19843;51.040;13.782;2022-07-21T12:04:54;157547.13;;;29.86;100.00
33506;BME280;19843;51.040;13.782;2022-07-21T12:07:26;157433.59;;;29.42;100.00
33506;BME280;19843;51.040;13.782;2022-07-21T12:09:56;157367.00;;;29.16;100.00
33506;BME280;19843;51.040;13.782;2022-07-21T12:12:32;157220.91;;;28.60;100.00
33506;BME280;19843;51.040;13.782;2022-07-21T12:15:12;157284.84;;;28.84;100.00
33506;BME280;19843;51.040;13.782;2022-07-21T12:17:42;157398.31;;;29.28;100.00
33506;BME280;19843;51.040;13.782;2022-07-21T12:20:11;157374.81;;;29.19;100.00
33506;BME280;19843;51.040;13.782;2022-07-21T12:22:42;157414.03;;;29.34;100.00
33506;BME280;19843;51.040;13.782;2022-07-21T12:25:12;157406.19;;;29.31;100.00
33506;BME280;19843;51.040;13.782;2022-07-21T12:27:41;157231.31;;;28.64;100.00
33506;BME280;19843;51.040;13.782;2022-07-21T12:30:28;157291.38;;;28.87;100.00
33506;BME280;19843;51.040;13.782;2022-07-21T12:33:02;157153.09;;;28.33;100.00
33506;BME280;19843;51.040;13.782;2022-07-21T12:35:30;157153.09;;;28.33;100.00
33506;BME280;19843;51.040;13.782;2022-07-21T12:38:03;157207.84;;;28.54;100.00
33506;BME280;19843;51.040;13.782;2022-07-21T12:40:33;157080.03;;;28.05;100.00
33506;BME280;19843;51.040;13.782;2022-07-21T12:43:12;157016.16;;;27.80;100.00
33506;BME280;19843;51.040;13.782;2022-07-21T12:45:47;157046.16;;;27.92;100.00
33506;BME280;19843;51.040;13.782;2022-07-21T12:48:17;157026.59;;;27.84;100.00